createdAt,value
2023-05-11T00:00:25.552Z,97525.34
2023-05-11T00:02:55.715Z,97521.78
2023-05-11T00:05:28.650Z,97518.78
2023-05-11T00:08:01.395Z,97528.66
2023-05-11T00:10:32.015Z,97528.16
2023-05-11T00:13:02.458Z,97525.09
2023-05-11T00:15:32.830Z,97526.13
2023-05-11T00:18:03.033Z,97531.44
2023-05-11T00:20:36.125Z,97528.94
2023-05-11T00:23:06.452Z,97523.13
2023-05-11T00:25:36.672Z,97522.13
2023-05-11T00:28:07.085Z,97523.88
2023-05-11T00:30:37.246Z,97514.53
2023-05-11T00:33:07.454Z,97513.50
2023-05-11T00:35:40.336Z,97504.34
2023-05-11T00:38:10.654Z,97500.78
2023-05-11T00:40:41.132Z,97496.97
2023-05-11T00:43:11.966Z,97501.03
2023-05-11T00:45:42.358Z,97500.00
2023-05-11T00:48:12.542Z,97493.19
2023-05-11T00:50:45.435Z,97489.66
2023-05-11T00:53:15.742Z,97496.75
2023-05-11T00:55:46.820Z,97486.34
2023-05-11T00:58:17.745Z,97489.41
2023-05-11T01:00:48.465Z,97488.63
2023-05-11T01:03:19.990Z,97487.88
2023-05-11T01:05:56.646Z,97491.16
2023-05-11T01:08:31.233Z,97484.06
2023-05-11T01:11:06.495Z,97492.44
2023-05-11T01:13:40.857Z,97483.84
2023-05-11T01:16:15.747Z,97490.41
2023-05-11T01:18:52.936Z,97490.41
2023-05-11T01:21:26.514Z,97489.91
2023-05-11T01:24:27.196Z,97487.63
2023-05-11T01:27:09.789Z,97478.75
2023-05-11T01:29:48.429Z,97488.13
2023-05-11T01:32:23.261Z,97482.31
2023-05-11T01:34:57.480Z,97485.09
2023-05-11T01:37:29.305Z,97482.06
2023-05-11T01:40:06.614Z,97482.31
2023-05-11T01:42:41.756Z,97484.34
2023-05-11T01:45:14.029Z,97484.59
2023-05-11T01:47:48.471Z,97484.09
2023-05-11T01:50:22.064Z,97488.16
2023-05-11T01:52:52.723Z,97487.16
2023-05-11T01:55:25.482Z,97500.84
2023-05-11T01:57:57.218Z,97489.16
2023-05-11T02:00:27.689Z,97492.44
2023-05-11T02:03:01.264Z,97498.53
2023-05-11T02:05:35.277Z,97498.81
2023-05-11T02:08:07.807Z,97490.44
2023-05-11T02:10:38.889Z,97493.72
2023-05-11T02:13:10.093Z,97496.03
2023-05-11T02:15:43.417Z,97490.69
2023-05-11T02:18:17.616Z,97495.50
2023-05-11T02:20:48.705Z,97494.47
2023-05-11T02:23:20.768Z,97491.19
2023-05-11T02:25:52.187Z,97489.91
2023-05-11T02:28:22.795Z,97494.75
2023-05-11T02:30:56.912Z,97484.59
2023-05-11T02:33:35.949Z,97487.16
2023-05-11T02:36:08.360Z,97492.47
2023-05-11T02:38:40.237Z,97494.25
2023-05-11T02:41:15.700Z,97488.41
2023-05-11T02:43:51.110Z,97486.38
2023-05-11T02:46:23.964Z,97480.03
2023-05-11T02:49:01.360Z,97481.56
2023-05-11T02:51:36.560Z,97480.31
2023-05-11T02:54:10.975Z,97481.56
2023-05-11T02:56:45.258Z,97478.78
2023-05-11T02:59:15.769Z,97476.50
2023-05-11T03:01:46.643Z,97473.69
2023-05-11T03:04:19.804Z,97476.50
2023-05-11T03:06:50.007Z,97478.50
2023-05-11T03:09:20.289Z,97491.69
2023-05-11T03:11:52.137Z,97486.63
2023-05-11T03:14:22.712Z,97488.44
2023-05-11T03:16:55.701Z,97491.72
2023-05-11T03:19:30.313Z,97492.47
2023-05-11T03:22:01.334Z,97489.69
2023-05-11T03:24:31.537Z,97488.41
2023-05-11T03:27:03.924Z,97486.88
2023-05-11T03:29:38.602Z,97483.34
2023-05-11T03:32:09.616Z,97490.19
2023-05-11T03:34:44.633Z,97484.59
2023-05-11T03:37:18.133Z,97489.69
2023-05-11T03:39:50.586Z,97491.69
2023-05-11T03:42:21.387Z,97488.41
2023-05-11T03:44:56.088Z,97494.00
2023-05-11T03:47:26.767Z,97483.84
2023-05-11T03:50:01.068Z,97485.88
2023-05-11T03:52:31.327Z,97485.66
2023-05-11T03:55:01.681Z,97483.59
2023-05-11T03:57:32.224Z,97489.19
2023-05-11T04:00:02.398Z,97485.38
2023-05-11T04:02:34.367Z,97485.66
2023-05-11T04:05:10.166Z,97479.03
2023-05-11T04:07:41.357Z,97488.66
2023-05-11T04:10:12.298Z,97484.63
2023-05-11T04:12:42.482Z,97488.19
2023-05-11T04:15:13.561Z,97492.22
2023-05-11T04:17:43.806Z,97485.66
2023-05-11T04:20:17.947Z,97486.91
2023-05-11T04:22:48.184Z,97491.72
2023-05-11T04:25:18.513Z,97494.50
2023-05-11T04:27:48.653Z,97490.72
2023-05-11T04:30:21.002Z,97492.94
2023-05-11T04:32:51.336Z,97501.31
2023-05-11T04:35:25.063Z,97501.56
2023-05-11T04:37:55.693Z,97505.59
2023-05-11T04:40:26.963Z,97496.47
2023-05-11T04:42:57.710Z,97496.72
2023-05-11T04:45:28.074Z,97492.91
2023-05-11T04:47:58.305Z,97499.75
2023-05-11T04:50:32.212Z,97505.06
2023-05-11T04:53:02.483Z,97495.94
2023-05-11T04:55:33.116Z,97498.72
2023-05-11T04:58:04.066Z,97508.34
2023-05-11T05:00:34.286Z,97504.78
2023-05-11T05:03:04.691Z,97498.94
2023-05-11T05:05:38.586Z,97493.84
2023-05-11T05:08:08.886Z,97503.50
2023-05-11T05:10:39.046Z,97509.28
2023-05-11T05:13:09.575Z,97500.13
2023-05-11T05:15:39.720Z,97501.34
2023-05-11T05:18:09.921Z,97513.00
2023-05-11T05:20:42.862Z,97496.28
2023-05-11T05:23:13.010Z,97508.97
2023-05-11T05:25:43.179Z,97507.16
2023-05-11T05:28:13.401Z,97506.16
2023-05-11T05:30:43.748Z,97509.69
2023-05-11T05:33:14.446Z,97515.50
2023-05-11T05:35:47.430Z,97515.25
2023-05-11T05:38:20.431Z,97517.78
2023-05-11T05:40:51.054Z,97518.50
2023-05-11T05:43:21.454Z,97513.94
2023-05-11T05:45:51.892Z,97515.63
2023-05-11T05:48:22.202Z,97526.31
2023-05-11T05:50:54.981Z,97526.75
2023-05-11T05:53:25.464Z,97519.63
2023-05-11T05:55:55.686Z,97522.59
2023-05-11T05:58:25.921Z,97519.03
2023-05-11T06:00:56.059Z,97520.53
2023-05-11T06:03:28.487Z,97521.81
2023-05-11T06:06:03.742Z,97528.44
2023-05-11T06:08:34.033Z,97525.09
2023-05-11T06:11:04.131Z,97528.81
2023-05-11T06:13:34.296Z,97529.28
2023-05-11T06:16:04.774Z,97530.50
2023-05-11T06:18:37.396Z,97535.53
2023-05-11T06:21:12.645Z,97535.53
2023-05-11T06:23:42.830Z,97531.72
2023-05-11T06:26:13.019Z,97534.06
2023-05-11T06:28:43.397Z,97543.22
2023-05-11T06:31:17.543Z,97541.94
2023-05-11T06:33:48.001Z,97540.38
2023-05-11T06:36:30.471Z,97539.41
2023-05-11T06:39:00.671Z,97537.06
2023-05-11T06:41:31.224Z,97533.78
2023-05-11T06:44:01.583Z,97541.59
2023-05-11T06:46:39.666Z,97542.53
2023-05-11T06:49:10.951Z,97543.13
2023-05-11T06:51:43.676Z,97539.75
2023-05-11T06:54:13.896Z,97534.34
2023-05-11T06:56:44.068Z,97539.44
2023-05-11T06:59:14.286Z,97538.22
2023-05-11T07:01:44.917Z,97541.31
2023-05-11T07:04:15.440Z,97533.06
2023-05-11T07:06:48.140Z,97530.38
2023-05-11T07:09:18.346Z,97540.94
2023-05-11T07:11:48.496Z,97536.31
2023-05-11T07:14:18.722Z,97532.28
2023-05-11T07:16:52.921Z,97534.22
2023-05-11T07:19:23.240Z,97537.59
2023-05-11T07:21:56.065Z,97534.94
2023-05-11T07:24:26.323Z,97535.22
2023-05-11T07:26:57.601Z,97531.59
2023-05-11T07:29:27.923Z,97536.19
2023-05-11T07:31:58.126Z,97539.91
2023-05-11T07:34:28.440Z,97541.38
2023-05-11T07:37:01.934Z,97548.75
2023-05-11T07:39:32.076Z,97551.22
2023-05-11T07:42:02.189Z,97550.56
2023-05-11T07:44:32.365Z,97553.94
2023-05-11T07:47:02.856Z,97559.22
2023-05-11T07:49:42.970Z,97557.63
2023-05-11T07:52:16.411Z,97549.28
2023-05-11T07:54:46.722Z,97548.50
2023-05-11T07:57:16.898Z,97543.28
2023-05-11T07:59:47.219Z,97542.88
2023-05-11T08:02:19.106Z,97545.34
2023-05-11T08:04:49.774Z,97539.50
2023-05-11T08:07:22.597Z,97542.22
2023-05-11T08:09:53.003Z,97545.84
2023-05-11T08:12:23.119Z,97535.69
2023-05-11T08:14:53.268Z,97546.84
2023-05-11T08:17:23.367Z,97542.09
2023-05-11T08:19:53.570Z,97555.69
2023-05-11T08:22:26.604Z,97552.88
2023-05-11T08:24:56.860Z,97552.81
2023-05-11T08:27:26.997Z,97546.16
2023-05-11T08:29:58.402Z,97556.13
2023-05-11T08:32:29.564Z,97544.19
2023-05-11T08:35:00.427Z,97546.72
2023-05-11T08:37:36.212Z,97543.19
2023-05-11T08:40:06.782Z,97536.81
2023-05-11T08:42:37.849Z,97550.34
2023-05-11T08:45:10.337Z,97539.59
2023-05-11T08:47:40.862Z,97547.66
2023-05-11T08:50:11.762Z,97541.53
2023-05-11T08:52:44.877Z,97538.56
2023-05-11T08:55:14.987Z,97542.59
2023-05-11T08:57:48.066Z,97540.03
2023-05-11T09:00:19.879Z,97533.72
2023-05-11T09:02:51.494Z,97537.09
2023-05-11T09:05:22.792Z,97533.69
2023-05-11T09:07:58.111Z,97540.72
2023-05-11T09:10:28.337Z,97549.97
2023-05-11T09:12:58.517Z,97538.50
2023-05-11T09:15:28.634Z,97540.72
2023-05-11T09:17:59.274Z,97529.97
2023-05-11T09:20:31.946Z,97535.94
2023-05-11T09:23:05.185Z,97535.91
2023-05-11T09:25:36.088Z,97545.53
2023-05-11T09:28:06.383Z,97530.00
2023-05-11T09:30:36.954Z,97538.75
2023-05-11T09:33:07.721Z,97549.19
2023-05-11T09:35:39.167Z,97545.94
2023-05-11T09:38:16.403Z,97541.38
2023-05-11T09:40:54.622Z,97546.47
2023-05-11T09:43:29.798Z,97547.88
2023-05-11T09:46:04.394Z,97540.78
2023-05-11T09:48:35.602Z,97538.97
2023-05-11T09:51:07.378Z,97538.56
2023-05-11T09:53:43.661Z,97531.03
2023-05-11T09:56:15.768Z,97534.25
2023-05-11T09:58:55.098Z,97537.50
2023-05-11T10:01:33.016Z,97544.50
2023-05-11T10:04:17.884Z,97538.19
2023-05-11T10:06:53.993Z,97548.75
2023-05-11T10:09:29.399Z,97543.78
2023-05-11T10:11:59.565Z,97532.97
2023-05-11T10:14:32.021Z,97539.38
2023-05-11T10:17:04.189Z,97536.66
2023-05-11T10:19:34.837Z,97531.31
2023-05-11T10:22:05.979Z,97547.19
2023-05-11T10:24:39.182Z,97534.91
2023-05-11T10:27:10.018Z,97536.28
2023-05-11T10:29:40.732Z,97523.63
2023-05-11T10:32:11.919Z,97532.63
2023-05-11T10:34:42.621Z,97524.41
2023-05-11T10:37:13.132Z,97522.97
2023-05-11T10:39:50.479Z,97520.69
2023-05-11T10:42:33.767Z,97521.38
2023-05-11T10:45:15.259Z,97512.94
2023-05-11T10:48:12.439Z,97514.56
2023-05-11T10:50:53.813Z,97511.09
2023-05-11T10:53:38.585Z,97515.91
2023-05-11T10:56:22.452Z,97520.53
2023-05-11T10:59:09.255Z,97496.22
2023-05-11T11:01:43.294Z,97507.84
2023-05-11T11:04:15.165Z,97500.00
2023-05-11T11:06:46.800Z,97502.91
2023-05-11T11:09:18.101Z,97506.09
2023-05-11T11:11:51.827Z,97503.84
2023-05-11T11:14:22.165Z,97503.03
2023-05-11T11:17:22.234Z,97513.00
2023-05-11T11:19:52.354Z,97516.56
2023-05-11T11:22:47.567Z,97512.59
2023-05-11T11:25:19.553Z,97509.72
2023-05-11T11:28:01.297Z,97510.25
2023-05-11T11:30:32.725Z,97507.66
2023-05-11T11:33:44.387Z,97504.69
2023-05-11T11:36:16.570Z,97520.88
2023-05-11T11:39:01.926Z,97518.31
2023-05-11T11:41:33.402Z,97512.59
2023-05-11T11:44:06.692Z,97511.09
2023-05-11T11:46:36.922Z,97513.50
2023-05-11T11:49:11.203Z,97511.06
2023-05-11T11:51:41.556Z,97515.03
2023-05-11T11:54:12.528Z,97515.06
2023-05-11T11:56:45.097Z,97515.59
2023-05-11T11:59:19.549Z,97508.34
2023-05-11T12:01:55.523Z,97519.91
2023-05-11T12:04:55.783Z,97531.78
2023-05-11T12:07:28.324Z,97527.03
2023-05-11T12:09:59.206Z,97530.69
2023-05-11T12:12:30.286Z,97529.03
2023-05-11T12:15:04.249Z,97526.59
2023-05-11T12:17:34.936Z,97539.69
2023-05-11T12:20:16.310Z,97528.88
2023-05-11T12:22:47.306Z,97536.78
2023-05-11T12:25:18.526Z,97530.56
2023-05-11T12:27:55.415Z,97529.31
2023-05-11T12:30:30.305Z,97532.72
2023-05-11T12:33:01.329Z,97528.41
2023-05-11T12:35:33.857Z,97525.88
2023-05-11T12:38:05.345Z,97531.44
2023-05-11T12:40:36.653Z,97514.94
2023-05-11T12:43:06.849Z,97521.06
2023-05-11T12:45:39.716Z,97520.47
2023-05-11T12:48:11.118Z,97524.25
2023-05-11T12:50:44.112Z,97529.97
2023-05-11T12:53:18.265Z,97528.00
2023-05-11T12:55:49.300Z,97521.53
2023-05-11T12:58:20.212Z,97531.50
2023-05-11T13:00:57.589Z,97529.44
2023-05-11T13:03:31.171Z,97521.97
2023-05-11T13:06:09.269Z,97532.75
2023-05-11T13:08:47.008Z,97527.31
2023-05-11T13:11:21.621Z,97530.72
2023-05-11T13:13:52.025Z,97539.59
2023-05-11T13:16:35.418Z,97548.41
2023-05-11T13:19:08.323Z,97536.63
2023-05-11T13:21:39.087Z,97532.19
2023-05-11T13:24:09.770Z,97531.41
2023-05-11T13:26:40.004Z,97533.66
2023-05-11T13:29:11.465Z,97531.50
2023-05-11T13:31:51.692Z,97537.97
2023-05-11T13:34:22.636Z,97534.81
2023-05-11T13:36:53.254Z,97537.38
2023-05-11T13:39:24.158Z,97536.16
2023-05-11T13:41:56.001Z,97535.69
2023-05-11T13:44:26.342Z,97525.72
2023-05-11T13:46:59.131Z,97530.75
2023-05-11T13:49:29.298Z,97531.50
2023-05-11T13:52:00.674Z,97527.41
2023-05-11T13:54:32.076Z,97525.94
2023-05-11T13:57:03.738Z,97525.06
2023-05-11T13:59:33.953Z,97524.91
2023-05-11T14:02:06.945Z,97524.38
2023-05-11T14:04:37.271Z,97522.50
2023-05-11T14:07:08.109Z,97518.38
2023-05-11T14:09:38.311Z,97520.50
2023-05-11T14:12:09.085Z,97523.31
2023-05-11T14:14:39.317Z,97521.59
2023-05-11T14:17:13.737Z,97523.72
2023-05-11T14:19:44.257Z,97523.00
2023-05-11T14:22:14.661Z,97519.69
2023-05-11T14:24:47.898Z,97521.75
2023-05-11T14:27:18.058Z,97530.19
2023-05-11T14:29:51.787Z,97529.75
2023-05-11T14:32:24.792Z,97517.50
2023-05-11T14:34:54.937Z,97527.41
2023-05-11T14:37:25.062Z,97521.91
2023-05-11T14:39:55.218Z,97525.13
2023-05-11T14:42:25.342Z,97523.13
2023-05-11T14:44:55.451Z,97523.81
2023-05-11T14:47:28.374Z,97529.41
2023-05-11T14:49:58.660Z,97524.25
2023-05-11T14:52:28.810Z,97525.16
2023-05-11T14:54:58.974Z,97522.34
2023-05-11T14:57:29.249Z,97524.53
2023-05-11T15:00:00.710Z,97527.00
2023-05-11T15:02:33.840Z,97523.22
2023-05-11T15:05:04.110Z,97526.81
2023-05-11T15:07:34.290Z,97525.16
2023-05-11T15:10:04.665Z,97526.75
2023-05-11T15:12:34.852Z,97524.66
2023-05-11T15:15:05.065Z,97526.38
2023-05-11T15:17:37.972Z,97521.25
2023-05-11T15:20:10.373Z,97533.75
2023-05-11T15:22:40.536Z,97534.81
2023-05-11T15:25:11.529Z,97533.38
2023-05-11T15:27:41.710Z,97531.47
2023-05-11T15:30:13.551Z,97535.25
2023-05-11T15:32:46.461Z,97532.56
2023-05-11T15:35:17.355Z,97533.25
2023-05-11T15:37:47.709Z,97534.00
2023-05-11T15:40:20.379Z,97542.31
2023-05-11T15:42:50.589Z,97531.41
2023-05-11T15:45:21.209Z,97537.16
2023-05-11T15:47:54.401Z,97547.47
2023-05-11T15:50:27.126Z,97533.00
2023-05-11T15:52:57.394Z,97537.28
2023-05-11T15:55:27.598Z,97543.31
2023-05-11T15:57:58.021Z,97543.97
2023-05-11T16:00:30.596Z,97550.69
2023-05-11T16:03:03.620Z,97547.13
2023-05-11T16:05:34.014Z,97544.84
2023-05-11T16:08:04.212Z,97547.66
2023-05-11T16:10:34.492Z,97563.50
2023-05-11T16:13:04.760Z,97556.34
2023-05-11T16:15:35.082Z,97557.09
2023-05-11T16:18:08.262Z,97555.47
2023-05-11T16:20:38.828Z,97552.34
2023-05-11T16:23:09.042Z,97550.47
2023-05-11T16:25:39.349Z,97547.59
2023-05-11T16:28:09.536Z,97557.88
2023-05-11T16:30:39.785Z,97555.59
2023-05-11T16:33:12.581Z,97566.97
2023-05-11T16:35:42.837Z,97559.28
2023-05-11T16:38:19.187Z,97558.34
2023-05-11T16:40:49.654Z,97563.97
2023-05-11T16:43:20.225Z,97565.03
2023-05-11T16:45:53.429Z,97567.88
2023-05-11T16:48:27.220Z,97567.13
2023-05-11T16:50:58.356Z,97563.78
2023-05-11T16:53:29.273Z,97579.66
2023-05-11T16:56:00.021Z,97581.31
2023-05-11T16:58:31.185Z,97572.53
2023-05-11T17:01:01.772Z,97569.41
2023-05-11T17:03:35.499Z,97568.97
2023-05-11T17:06:05.973Z,97582.47
2023-05-11T17:08:36.187Z,97576.09
2023-05-11T17:11:06.437Z,97575.69
2023-05-11T17:13:37.186Z,97580.88
2023-05-11T17:16:08.072Z,97579.34
2023-05-11T17:18:40.942Z,97577.31
2023-05-11T17:21:11.254Z,97586.91
2023-05-11T17:23:41.750Z,97582.16
2023-05-11T17:26:12.878Z,97577.06
2023-05-11T17:28:43.418Z,97583.22
2023-05-11T17:31:14.958Z,97590.22
2023-05-11T17:33:48.333Z,97589.16
2023-05-11T17:36:18.972Z,97591.47
2023-05-11T17:38:51.441Z,97591.13
2023-05-11T17:41:21.657Z,97593.72
2023-05-11T17:43:51.885Z,97587.09
2023-05-11T17:46:22.332Z,97602.38
2023-05-11T17:48:55.546Z,97603.75
2023-05-11T17:51:25.846Z,97603.50
2023-05-11T17:53:56.509Z,97606.66
2023-05-11T17:56:26.701Z,97610.22
2023-05-11T17:58:56.868Z,97611.19
2023-05-11T18:01:27.821Z,97611.50
2023-05-11T18:04:00.946Z,97614.31
2023-05-11T18:06:31.819Z,97614.94
2023-05-11T18:09:02.324Z,97622.81
2023-05-11T18:11:32.693Z,97627.16
2023-05-11T18:14:03.582Z,97630.47
2023-05-11T18:16:34.382Z,97634.38
2023-05-11T18:19:07.400Z,97635.44
2023-05-11T18:21:38.250Z,97628.00
2023-05-11T18:24:09.782Z,97632.94
2023-05-11T18:26:40.054Z,97635.84
2023-05-11T18:29:10.283Z,97633.66
2023-05-11T18:31:40.502Z,97639.13
2023-05-11T18:34:13.465Z,97633.59
2023-05-11T18:36:43.990Z,97645.06
2023-05-11T18:39:14.435Z,97649.94
2023-05-11T18:41:44.600Z,97646.69
2023-05-11T18:44:15.348Z,97656.91
2023-05-11T18:46:45.572Z,97658.13
2023-05-11T18:49:18.540Z,97659.97
2023-05-11T18:51:48.759Z,97658.66
2023-05-11T18:54:18.994Z,97664.03
2023-05-11T18:56:49.260Z,97668.66
2023-05-11T18:59:19.703Z,97675.00
2023-05-11T19:01:50.410Z,97675.75
2023-05-11T19:04:23.253Z,97677.25
2023-05-11T19:06:53.489Z,97676.03
2023-05-11T19:09:23.622Z,97689.03
2023-05-11T19:11:53.768Z,97684.69
2023-05-11T19:14:24.015Z,97687.50
2023-05-11T19:16:54.300Z,97687.72
2023-05-11T19:19:27.152Z,97680.09
2023-05-11T19:21:57.349Z,97690.06
2023-05-11T19:24:27.736Z,97698.50
2023-05-11T19:27:06.433Z,97697.22
2023-05-11T19:29:37.174Z,97704.38
2023-05-11T19:32:08.197Z,97698.03
2023-05-11T19:34:40.907Z,97699.81
2023-05-11T19:37:11.112Z,97701.88
2023-05-11T19:39:41.311Z,97701.66
2023-05-11T19:42:11.653Z,97699.06
2023-05-11T19:44:43.678Z,97709.84
2023-05-11T19:47:13.882Z,97694.09
2023-05-11T19:49:46.955Z,97698.94
2023-05-11T19:52:17.199Z,97700.22
2023-05-11T19:54:47.418Z,97699.97
2023-05-11T19:57:18.689Z,97697.25
2023-05-11T19:59:48.903Z,97708.22
2023-05-11T20:02:19.270Z,97702.47
2023-05-11T20:04:52.204Z,97703.44
2023-05-11T20:07:22.905Z,97707.31
2023-05-11T20:09:53.181Z,97716.56
2023-05-11T20:12:23.334Z,97705.34
2023-05-11T20:14:54.688Z,97715.16
2023-05-11T20:17:24.940Z,97712.13
2023-05-11T20:19:57.783Z,97711.88
2023-05-11T20:22:27.937Z,97717.56
2023-05-11T20:24:58.088Z,97713.72
2023-05-11T20:27:28.413Z,97709.16
2023-05-11T20:29:58.576Z,97714.69
2023-05-11T20:32:28.900Z,97719.31
2023-05-11T20:35:01.696Z,97715.50
2023-05-11T20:37:32.012Z,97716.56
2023-05-11T20:40:02.327Z,97724.53
2023-05-11T20:42:32.691Z,97720.97
2023-05-11T20:45:07.501Z,97724.81
2023-05-11T20:47:37.871Z,97724.41
2023-05-11T20:50:12.360Z,97719.63
2023-05-11T20:52:42.514Z,97718.31
2023-05-11T20:55:12.931Z,97714.81
2023-05-11T20:57:43.113Z,97721.94
2023-05-11T21:00:16.252Z,97722.97
2023-05-11T21:02:48.833Z,97712.78
2023-05-11T21:05:23.560Z,97721.53
2023-05-11T21:07:56.001Z,97713.66
2023-05-11T21:10:26.480Z,97721.31
2023-05-11T21:12:56.740Z,97706.47
2023-05-11T21:15:26.939Z,97701.50
2023-05-11T21:17:57.200Z,97724.00
2023-05-11T21:20:30.092Z,97722.56
2023-05-11T21:23:00.624Z,97717.56
2023-05-11T21:25:30.836Z,97728.75
2023-05-11T21:28:01.187Z,97724.69
2023-05-11T21:30:31.452Z,97726.56
2023-05-11T21:33:01.635Z,97730.63
2023-05-11T21:39:15.131Z,97729.53
2023-05-11T21:41:52.805Z,97736.41
2023-05-11T21:44:25.243Z,97735.91
2023-05-11T21:46:55.826Z,97731.06
2023-05-11T21:49:26.440Z,97737.16
2023-05-11T21:51:58.532Z,97740.94
2023-05-11T21:54:31.652Z,97734.59
2023-05-11T21:57:01.792Z,97738.44
2023-05-11T21:59:32.017Z,97739.75
2023-05-11T22:02:03.159Z,97742.06
2023-05-11T22:04:33.682Z,97747.13
2023-05-11T22:07:04.235Z,97744.16
2023-05-11T22:09:37.308Z,97748.72
2023-05-11T22:12:08.455Z,97748.47
2023-05-11T22:14:39.679Z,97750.50
2023-05-11T22:17:11.081Z,97746.72
2023-05-11T22:19:41.316Z,97740.59
2023-05-11T22:22:11.524Z,97743.19
2023-05-11T22:24:44.509Z,97745.72
2023-05-11T22:27:15.750Z,97751.59
2023-05-11T22:29:46.249Z,97744.22
2023-05-11T22:32:16.501Z,97757.97
2023-05-11T22:34:46.951Z,97748.84
2023-05-11T22:37:17.112Z,97748.09
2023-05-11T22:39:49.964Z,97754.97
2023-05-11T22:42:20.205Z,97753.72
2023-05-11T22:44:50.467Z,97752.19
2023-05-11T22:47:20.789Z,97756.28
2023-05-11T22:49:53.804Z,97756.50
2023-05-11T22:52:24.059Z,97757.75
2023-05-11T22:54:58.974Z,97758.28
2023-05-11T22:57:29.324Z,97759.56
2023-05-11T22:59:59.530Z,97758.81
2023-05-11T23:02:30.170Z,97753.22
2023-05-11T23:05:00.767Z,97760.84
2023-05-11T23:07:31.157Z,97757.53
2023-05-11T23:10:04.027Z,97756.78
2023-05-11T23:12:34.202Z,97751.97
2023-05-11T23:15:04.524Z,97752.69
2023-05-11T23:17:34.845Z,97754.00
2023-05-11T23:20:05.131Z,97748.91
2023-05-11T23:22:35.493Z,97752.97
2023-05-11T23:25:10.681Z,97749.13
2023-05-11T23:27:41.047Z,97749.13
2023-05-11T23:30:12.292Z,97749.41
2023-05-11T23:32:42.563Z,97742.56
2023-05-11T23:35:13.182Z,97744.09
2023-05-11T23:37:43.661Z,97742.81
2023-05-11T23:40:16.948Z,97738.75
2023-05-11T23:42:47.209Z,97742.06
2023-05-11T23:45:18.086Z,97743.06
2023-05-11T23:47:48.391Z,97740.03
2023-05-11T23:50:19.230Z,97740.25
2023-05-11T23:52:49.891Z,97748.63
2023-05-11T23:55:24.481Z,97745.09
2023-05-11T23:57:58.819Z,97749.66
